Strona główna
METAR-TAF:

METAR-TAF

Lotnisko :

Schenectady County Airport

Schenectady, Nowy Jork, Stany Zjednoczone

Szerokość geograficzna: 42-51N, Długość geograficzna: 073-56W, wysokość: 115 m

Aktualna obserwacja pogody

Raport powstał 5 godziny i 17 minut temu, godzina 02:45 UTC
Wiatr 11 kt od zachód w porywach dochodzący do 19 kt
Temperatura -3°C
Wilgotność 50%
Ciśnienie 1004 hPa
Widzialność: 16.1 km
Rozproszone chmury na wysokości 5000 ft
Przerywane chmury na wysokości 6000 ft
Przerywane chmury na wysokości 8000 ft

METAR: KSCH 280245Z 26011G19KT 10SM SCT050 BKN060 BKN080 M03/M12 A2966 RMK LAST

czas: 03:02 (08:02 UTC)


TAF: brakujący

Obserwacja i prognoza pogody dla ponad 4000 lotnisk (raport METAR i TAF).

Dostępne stacje oznaczono żółtymi i czerwonymi punktami na mapie.

Najedź kursorem aby zobaczyć nazwę stacji.

Kliknij aby zobaczyć obserwacje i prognozy pogody.

Aby zmienić mapę: kliknij na zielony przycisk z czarnym krzyżykiem, aby powiększyć; na zielony przycisk z myślnikiem, aby pomniejszyć; na zielone strzałki, aby przejść do map sąsiednich.


METAR-TAF: